createdAt,value
2019-04-22T00:00:34.030Z,100337.88
2019-04-22T00:05:58.852Z,100328.56
2019-04-22T00:11:04.898Z,100325.78
2019-04-22T00:16:08.183Z,100319.23
2019-04-22T00:21:19.519Z,100321.22
2019-04-22T00:26:24.211Z,100314.87
2019-04-22T00:31:28.547Z,100324.47
2019-04-22T00:36:28.919Z,100318.90
2019-04-22T00:41:35.829Z,100313.58
2019-04-22T00:46:46.155Z,100309.41
2019-04-22T00:51:52.595Z,100314.97
2019-04-22T00:56:47.431Z,100309.84
2019-04-22T01:02:05.638Z,100304.87
2019-04-22T01:07:09.454Z,100306.88
2019-04-22T01:12:12.123Z,100303.91
2019-04-22T01:17:12.072Z,100303.77
2019-04-22T01:22:17.486Z,100302.38
2019-04-22T01:27:17.407Z,100295.06
2019-04-22T01:32:13.177Z,100295.06
2019-04-22T01:37:28.874Z,100292.28
2019-04-22T01:42:43.154Z,100297.05
2019-04-22T01:47:43.733Z,100286.36
2019-04-22T01:53:02.030Z,100279.22
2019-04-22T01:57:53.664Z,100272.27
2019-04-22T02:03:06.358Z,100265.31
2019-04-22T02:08:14.590Z,100263.13
2019-04-22T02:13:20.049Z,100257.39
2019-04-22T02:18:24.417Z,100258.03
2019-04-22T02:28:40.056Z,100257.84
2019-04-22T02:49:23.078Z,100245.16
2019-04-22T02:59:28.784Z,100234.88
2019-04-22T03:04:24.577Z,100234.27
2019-04-22T03:09:25.489Z,100233.49
2019-04-22T03:14:22.872Z,100223.58
2019-04-22T03:19:46.651Z,100217.23
2019-04-22T03:30:33.722Z,100208.73
2019-04-22T03:40:28.617Z,100198.22
2019-04-22T03:45:26.242Z,100200.82
2019-04-22T04:00:47.566Z,100204.63
2019-04-22T04:10:52.727Z,100207.41
2019-04-22T04:15:38.456Z,100206.63
2019-04-22T04:26:00.939Z,100201.50
2019-04-22T04:31:17.705Z,100205.84
2019-04-22T04:36:07.854Z,100204.28
2019-04-22T04:51:35.323Z,100202.89
2019-04-22T05:06:51.274Z,100213.23
2019-04-22T05:16:54.315Z,100205.95
2019-04-22T05:21:58.055Z,100214.30
2019-04-22T05:27:11.266Z,100208.73
2019-04-22T05:32:03.092Z,100215.08
2019-04-22T05:37:07.609Z,100220.03
2019-04-22T05:42:12.913Z,100212.30
2019-04-22T05:47:19.571Z,100208.45
2019-04-22T05:52:21.231Z,100202.89
2019-04-22T05:57:31.602Z,100203.24
2019-04-22T06:02:47.596Z,100205.59
2019-04-22T06:07:38.462Z,100206.56
2019-04-22T06:12:40.470Z,100204.46
2019-04-22T06:17:57.420Z,100200.64
2019-04-22T06:28:03.484Z,100206.46
2019-04-22T06:38:31.604Z,100193.16
2019-04-22T06:48:24.063Z,100194.57
2019-04-22T06:53:29.874Z,100184.90
2019-04-22T06:58:34.710Z,100189.78
2019-04-22T07:13:52.148Z,100181.05
2019-04-22T07:18:56.660Z,100173.31
2019-04-22T07:24:14.512Z,100178.33
2019-04-22T07:29:23.255Z,100178.69
2019-04-22T07:34:22.242Z,100175.55
2019-04-22T07:39:15.769Z,100176.28
2019-04-22T07:49:33.965Z,100176.04
2019-04-22T07:54:36.144Z,100179.50
2019-04-22T07:59:34.823Z,100168.31
2019-04-22T08:04:56.003Z,100161.09
2019-04-22T08:10:00.298Z,100166.14
2019-04-22T08:14:53.691Z,100160.13
2019-04-22T08:20:05.553Z,100161.02
2019-04-22T08:25:01.723Z,100161.27
2019-04-22T08:30:14.409Z,100159.59
2019-04-22T08:35:27.848Z,100154.57
2019-04-22T08:40:28.810Z,100157.89
2019-04-22T08:45:35.131Z,100158.67
2019-04-22T08:50:39.826Z,100171.01
2019-04-22T08:55:51.929Z,100171.33
2019-04-22T09:00:51.833Z,100171.76
2019-04-22T09:06:14.740Z,100168.47
2019-04-22T09:10:58.017Z,100173.92
2019-04-22T09:16:08.751Z,100179.16
2019-04-22T09:21:15.299Z,100166.37
2019-04-22T09:26:20.211Z,100159.34
2019-04-22T09:31:19.602Z,100158.19
2019-04-22T09:36:29.059Z,100153.91
2019-04-22T09:41:33.770Z,100152.87
2019-04-22T09:46:37.276Z,100145.13
2019-04-22T09:51:41.461Z,100140.95
2019-04-22T09:56:43.914Z,100133.64
2019-04-22T10:02:04.089Z,100127.92
2019-04-22T10:07:00.991Z,100127.92
2019-04-22T10:11:58.280Z,100123.47
2019-04-22T10:17:17.895Z,100119.20
2019-04-22T10:22:10.509Z,100114.30
2019-04-22T10:27:13.596Z,100125.62
2019-04-22T10:32:20.635Z,100122.22
2019-04-22T10:37:06.381Z,100108.66
2019-04-22T10:42:07.067Z,100115.00
2019-04-22T10:47:11.896Z,100107.70
2019-04-22T10:52:16.469Z,100092.56
2019-04-22T10:57:20.212Z,100089.34
2019-04-22T11:02:23.644Z,100085.48
2019-04-22T11:07:37.315Z,100085.05
2019-04-22T11:12:35.476Z,100072.69
2019-04-22T11:17:37.758Z,100067.55
2019-04-22T11:22:42.663Z,100058.37
2019-04-22T11:27:47.197Z,100059.67
2019-04-22T11:32:50.775Z,100058.28
2019-04-22T11:37:54.973Z,100042.36
2019-04-22T11:42:59.864Z,100044.22
2019-04-22T11:48:03.682Z,100033.87
2019-04-22T11:53:07.180Z,100032.63
2019-04-22T11:58:10.719Z,100043.75
2019-04-22T12:03:14.747Z,100026.45
2019-04-22T12:08:18.347Z,100013.92
2019-04-22T12:13:21.909Z,100032.02
2019-04-22T12:18:27.022Z,100014.70
2019-04-22T12:23:30.655Z,100016.09
2019-04-22T12:28:35.148Z,100002.78
2019-04-22T12:33:39.324Z,99995.66
2019-04-22T12:38:42.954Z,100016.53
2019-04-22T12:43:47.428Z,99997.83
2019-04-22T12:48:52.230Z,99998.44
2019-04-22T12:53:57.125Z,99984.98
2019-04-22T12:59:01.408Z,99957.75
2019-04-22T13:04:09.359Z,99955.58
2019-04-22T13:09:10.638Z,99961.15
2019-04-22T13:14:14.980Z,99947.23
2019-04-22T13:19:20.597Z,99940.88
2019-04-22T13:24:23.881Z,99937.32
2019-04-22T13:29:27.680Z,99951.23
2019-04-22T13:34:39.588Z,99936.88
2019-04-22T13:39:38.861Z,99922.97
2019-04-22T13:44:44.047Z,99914.78
2019-04-22T13:50:23.634Z,99916.31
2019-04-22T13:55:23.934Z,99889.00
2019-04-22T14:00:00.168Z,99889.34
2019-04-22T14:05:04.314Z,99890.29
2019-04-22T14:10:08.776Z,99893.39
2019-04-22T14:15:13.937Z,99880.42
2019-04-22T14:20:20.656Z,99873.45
2019-04-22T14:25:24.901Z,99883.20
2019-04-22T14:30:28.681Z,99849.41
2019-04-22T14:35:32.173Z,99849.41
2019-04-22T14:40:36.619Z,99845.17
2019-04-22T14:46:15.514Z,99844.56
2019-04-22T14:51:10.213Z,99844.73
2019-04-22T14:55:52.678Z,99836.21
2019-04-22T15:00:56.909Z,99830.81
2019-04-22T15:06:02.089Z,99836.69
2019-04-22T15:11:06.276Z,99840.77
2019-04-22T15:16:27.878Z,99838.02
2019-04-22T15:21:32.487Z,99831.39
2019-04-22T15:26:36.081Z,99839.92
2019-04-22T15:31:39.657Z,99836.22
2019-04-22T15:36:44.427Z,99847.86
2019-04-22T15:41:57.918Z,99839.84
2019-04-22T15:46:53.401Z,99838.63
2019-04-22T15:51:59.390Z,99843.11
2019-04-22T15:57:02.565Z,99834.65
2019-04-22T16:02:08.092Z,99835.73
2019-04-22T16:07:12.632Z,99834.09
2019-04-22T16:12:27.188Z,99841.84
2019-04-22T16:17:22.479Z,99842.01
2019-04-22T16:22:27.447Z,99838.95
2019-04-22T16:27:32.179Z,99836.95
2019-04-22T16:32:36.981Z,99835.08
2019-04-22T16:37:41.026Z,99826.11
2019-04-22T16:42:51.530Z,99821.31
2019-04-22T16:47:49.837Z,99826.27
2019-04-22T16:52:54.574Z,99820.09
2019-04-22T16:57:58.746Z,99821.06
2019-04-22T17:03:10.831Z,99817.22
2019-04-22T17:08:14.640Z,99813.84
2019-04-22T17:13:23.350Z,99816.97
2019-04-22T17:18:23.284Z,99818.70
2019-04-22T17:23:27.649Z,99829.06
2019-04-22T17:28:31.466Z,99840.21
2019-04-22T17:33:35.146Z,99832.16
2019-04-22T17:38:50.396Z,99831.80
2019-04-22T17:44:27.847Z,99842.30
2019-04-22T17:49:26.976Z,99857.18
2019-04-22T17:54:24.793Z,99853.17
2019-04-22T17:59:31.052Z,99835.70
2019-04-22T18:04:14.219Z,99835.70
2019-04-22T18:10:13.996Z,99839.55
2019-04-22T18:14:49.691Z,99837.23
2019-04-22T18:19:49.101Z,99838.45
2019-04-22T18:24:50.105Z,99843.41
2019-04-22T18:29:55.539Z,99839.68
2019-04-22T18:34:55.499Z,99837.36
2019-04-22T18:40:07.969Z,99833.80
2019-04-22T18:45:34.478Z,99847.59
2019-04-22T18:50:26.674Z,99847.42
2019-04-22T18:55:38.814Z,99841.23
2019-04-22T19:00:31.602Z,99834.75
2019-04-22T19:06:02.596Z,99847.59
2019-04-22T19:11:08.145Z,99845.70
2019-04-22T19:21:13.092Z,99847.34
2019-04-22T19:26:20.599Z,99847.34
2019-04-22T19:31:27.074Z,99837.59
2019-04-22T19:36:25.740Z,99853.69
2019-04-22T19:41:38.504Z,99847.95
2019-04-22T19:46:34.376Z,99845.44
2019-04-22T19:51:53.922Z,99841.26
2019-04-22T19:56:42.781Z,99840.20
2019-04-22T20:01:54.190Z,99847.95
2019-04-22T20:07:07.361Z,99824.23
2019-04-22T20:12:04.275Z,99824.23
2019-04-22T20:17:19.814Z,99824.52
2019-04-22T20:22:18.426Z,99819.56
2019-04-22T20:27:41.548Z,99817.11
2019-04-22T20:32:26.312Z,99808.92
2019-04-22T20:37:42.554Z,99802.13
2019-04-22T20:42:48.952Z,99795.30
2019-04-22T20:47:36.817Z,99786.33
2019-04-22T20:57:57.916Z,99770.09
2019-04-22T21:02:51.578Z,99770.09
2019-04-22T21:08:07.988Z,99760.78
2019-04-22T21:13:09.714Z,99755.48
2019-04-22T21:18:15.736Z,99756.22
2019-04-22T21:23:19.879Z,99769.80
2019-04-22T21:28:25.932Z,99747.80
2019-04-22T21:33:27.035Z,99746.72
2019-04-22T21:38:39.854Z,99750.12
2019-04-22T21:43:42.106Z,99753.34
2019-04-22T21:48:48.167Z,99753.62
2019-04-22T21:53:57.561Z,99731.40
2019-04-22T21:59:01.927Z,99731.40
2019-04-22T22:04:09.719Z,99739.50
2019-04-22T22:09:15.522Z,99730.81
2019-04-22T22:14:17.984Z,99730.52
2019-04-22T22:19:22.452Z,99713.64
2019-04-22T22:24:32.837Z,99717.48
2019-04-22T22:29:43.389Z,99712.19
2019-04-22T22:34:34.828Z,99707.84
2019-04-22T22:39:34.032Z,99699.97
2019-04-22T22:44:33.503Z,99694.23
2019-04-22T22:49:53.391Z,99691.11
2019-04-22T22:55:00.291Z,99683.98
2019-04-22T23:00:01.786Z,99676.86
2019-04-22T23:05:08.941Z,99678.08
2019-04-22T23:10:11.592Z,99665.25
2019-04-22T23:15:14.475Z,99660.91
2019-04-22T23:20:05.435Z,99661.97
2019-04-22T23:25:33.256Z,99663.36
2019-04-22T23:30:32.335Z,99657.45
2019-04-22T23:35:42.144Z,99656.06
2019-04-22T23:40:47.640Z,99653.14
2019-04-22T23:45:56.664Z,99648.80
2019-04-22T23:51:04.045Z,99637.78
2019-04-22T23:56:07.826Z,99641.17
